Time;durP1;ratioP1;P1;durP2;ratioP2;P2;SDS_P1;SDS_P2;PMS_P1;PMS_P2;Temp;Humidity;BMP_temperature;BMP_pressure;BME280_temperature;BME280_humidity;BME280_pressure;Samples;Min_cycle;Max_cycle;Signal;HPM_P1;HPM_P2
2024/01/16 00:02:46;;;;;;;3.40;2.10;;;;;;;-2.13;80.06;97963.63;215632;1268;141821;-73
2024/01/16 00:07:49;;;;;;;6.00;2.30;;;;;;;-2.15;80.02;97962.36;215827;1272;140449;-73
2024/01/16 00:12:52;;;;;;;6.50;2.90;;;;;;;-2.16;79.75;97972.47;215432;1267;153705;-72
2024/01/16 00:17:55;;;;;;;5.30;2.70;;;;;;;-2.16;79.89;97981.60;215803;1266;140915;-72
2024/01/16 00:22:59;;;;;;;5.90;2.70;;;;;;;-2.16;79.74;97994.48;215574;1272;232073;-74
2024/01/16 00:28:03;;;;;;;12.20;10.20;;;;;;;-2.16;79.82;98000.34;215777;1272;141314;-74
2024/01/16 00:33:06;;;;;;;4.70;2.20;;;;;;;-2.15;79.66;98007.21;215201;1270;140244;-71
2024/01/16 00:38:10;;;;;;;5.70;3.60;;;;;;;-2.15;79.55;98022.66;215488;1270;140289;-75
2024/01/16 00:43:14;;;;;;;10.10;5.20;;;;;;;-2.14;79.45;98025.39;215401;1267;140045;-76
2024/01/16 00:48:20;;;;;;;8.50;3.30;;;;;;;-2.14;79.52;98043.80;215293;1268;140889;-75
2024/01/16 00:53:23;;;;;;;10.60;5.30;;;;;;;-2.13;79.55;98051.65;215182;1270;140840;-73
2024/01/16 00:58:27;;;;;;;11.20;3.80;;;;;;;-2.10;79.44;98060.58;215557;1269;140545;-72
2024/01/16 01:03:30;;;;;;;7.50;4.60;;;;;;;-2.08;79.62;98064.81;215696;1267;142193;-75
2024/01/16 01:08:35;;;;;;;5.00;2.80;;;;;;;-2.06;79.45;98063.30;215719;1270;140219;-77
2024/01/16 01:13:39;;;;;;;8.10;3.70;;;;;;;-2.09;79.31;98067.41;215755;1267;142129;-78
2024/01/16 01:18:41;;;;;;;3.40;2.80;;;;;;;-2.12;79.20;98075.52;215382;1270;139817;-76
2024/01/16 01:23:45;;;;;;;5.60;3.50;;;;;;;-2.14;79.22;98077.13;215243;1270;139487;-74
2024/01/16 01:28:48;;;;;;;3.70;2.60;;;;;;;-2.19;78.96;98077.87;216087;1272;140157;-73
2024/01/16 01:33:51;;;;;;;8.80;4.20;;;;;;;-2.22;79.20;98077.09;215558;1267;244817;-74
2024/01/16 01:38:55;;;;;;;11.20;6.10;;;;;;;-2.26;78.90;98073.89;215418;1270;139632;-73
2024/01/16 01:43:58;;;;;;;19.60;10.00;;;;;;;-2.29;79.04;98086.48;215555;1267;140152;-74
2024/01/16 01:49:00;;;;;;;14.00;7.50;;;;;;;-2.34;78.96;98092.48;215513;1267;141116;-74
2024/01/16 01:54:04;;;;;;;17.30;6.40;;;;;;;-2.40;79.15;98097.73;215606;1267;140288;-74
2024/01/16 01:59:08;;;;;;;10.30;5.60;;;;;;;-2.44;79.17;98103.45;215298;1272;140962;-73
2024/01/16 02:04:15;;;;;;;9.20;4.00;;;;;;;-2.46;79.14;98111.26;216032;1267;141808;-72
2024/01/16 02:09:18;;;;;;;6.50;3.80;;;;;;;-2.50;78.92;98114.20;215287;1267;141443;-75
2024/01/16 02:14:21;;;;;;;7.80;4.10;;;;;;;-2.55;78.91;98127.36;215455;1267;139944;-74
2024/01/16 02:19:25;;;;;;;433.70;242.60;;;;;;;-2.61;78.64;98134.30;215961;1267;140147;-74
2024/01/16 02:24:28;;;;;;;4.00;2.00;;;;;;;-2.63;78.64;98137.40;215536;1267;140733;-76
2024/01/16 02:29:32;;;;;;;5.30;2.00;;;;;;;-2.67;78.50;98143.35;217708;1267;141020;-76
2024/01/16 02:34:35;;;;;;;5.20;3.00;;;;;;;-2.71;78.17;98153.83;215428;1267;140599;-75
2024/01/16 02:39:39;;;;;;;1.40;1.30;;;;;;;-2.78;78.01;98158.09;215457;1267;140455;-75
2024/01/16 02:44:43;;;;;;;3.70;2.10;;;;;;;-2.84;77.88;98161.45;215508;1272;140385;-70
2024/01/16 02:49:46;;;;;;;1.70;1.30;;;;;;;-2.95;77.64;98157.84;215395;1267;140495;-72
2024/01/16 02:54:49;;;;;;;3.50;1.80;;;;;;;-3.05;77.53;98164.98;215718;1267;150808;-74
2024/01/16 02:59:51;;;;;;;3.10;1.80;;;;;;;-3.12;77.61;98169.06;215476;1268;140776;-77
2024/01/16 03:04:54;;;;;;;2.50;2.10;;;;;;;-3.20;77.56;98173.77;215550;1267;140509;-76
2024/01/16 03:09:58;;;;;;;7.30;3.50;;;;;;;-3.26;77.24;98182.81;215472;1267;142033;-76
2024/01/16 03:15:01;;;;;;;4.10;3.00;;;;;;;-3.35;77.27;98193.78;215173;1272;141547;-77
2024/01/16 03:20:05;;;;;;;2.70;2.50;;;;;;;-3.43;77.11;98194.73;215438;1267;141008;-78
2024/01/16 03:25:09;;;;;;;3.80;1.50;;;;;;;-3.48;77.20;98196.55;215481;1272;140964;-77
2024/01/16 03:30:12;;;;;;;1.40;1.30;;;;;;;-3.56;77.17;98197.99;215442;1267;140106;-75
2024/01/16 03:35:15;;;;;;;1.20;1.10;;;;;;;-3.62;76.99;98200.34;215580;1268;140504;-74
2024/01/16 03:40:18;;;;;;;1.90;1.20;;;;;;;-3.66;76.89;98212.13;215530;1271;140678;-77
2024/01/16 03:45:21;;;;;;;1.70;1.30;;;;;;;-3.71;76.75;98213.69;215850;1267;140819;-77
2024/01/16 03:50:24;;;;;;;2.90;2.50;;;;;;;-3.75;76.85;98222.13;216706;1270;141096;-74
2024/01/16 03:55:27;;;;;;;3.50;1.20;;;;;;;-3.77;76.76;98222.05;215464;1267;141787;-73
2024/01/16 04:00:30;;;;;;;2.20;0.70;;;;;;;-3.82;76.46;98237.44;215128;1267;140271;-76
2024/01/16 04:05:33;;;;;;;4.70;1.90;;;;;;;-3.89;76.44;98237.51;215868;1267;140701;-76
2024/01/16 04:10:37;;;;;;;2.80;2.50;;;;;;;-3.94;76.50;98233.90;215773;1267;140417;-78
2024/01/16 04:15:40;;;;;;;7.00;1.80;;;;;;;-3.99;76.60;98243.55;216048;1267;140221;-78
2024/01/16 04:20:43;;;;;;;2.80;1.80;;;;;;;-4.04;76.40;98248.58;217383;1267;140477;-76
2024/01/16 04:25:46;;;;;;;4.00;1.30;;;;;;;-4.09;76.68;98260.56;216872;1267;140610;-78
2024/01/16 04:30:49;;;;;;;6.40;1.40;;;;;;;-4.13;76.57;98274.35;215654;1271;140383;-71
2024/01/16 04:35:52;;;;;;;3.90;1.90;;;;;;;-4.20;76.42;98278.41;216587;1267;140233;-73
2024/01/16 04:40:55;;;;;;;1.50;1.00;;;;;;;-4.24;76.66;98290.67;216280;1267;140975;-73
2024/01/16 04:45:59;;;;;;;5.60;4.60;;;;;;;-4.26;76.50;98300.71;215983;1267;142280;-75
2024/01/16 04:51:07;;;;;;;4.70;2.70;;;;;;;-4.30;76.52;98314.67;215577;1267;140884;-75
2024/01/16 04:56:10;;;;;;;3.80;1.70;;;;;;;-4.33;76.53;98327.16;215470;1267;142428;-75
2024/01/16 05:01:13;;;;;;;6.00;3.30;;;;;;;-4.33;76.54;98339.67;217466;1267;141286;-77
2024/01/16 05:06:17;;;;;;;9.30;3.80;;;;;;;-4.33;76.76;98344.84;215499;1268;140926;-76
2024/01/16 05:11:20;;;;;;;3.80;2.00;;;;;;;-4.35;76.57;98352.73;215233;1267;140137;-74
2024/01/16 05:16:24;;;;;;;3.90;2.00;;;;;;;-4.40;76.49;98364.16;215433;1268;140427;-76
2024/01/16 05:21:27;;;;;;;2.70;2.00;;;;;;;-4.46;76.43;98370.70;215376;1270;139988;-73
2024/01/16 05:26:30;;;;;;;18.10;16.20;;;;;;;-4.52;76.51;98369.83;215652;1268;140594;-75
2024/01/16 05:31:39;;;;;;;2.20;2.00;;;;;;;-4.55;76.79;98380.60;216268;1268;140831;-77
2024/01/16 05:36:43;;;;;;;6.80;2.80;;;;;;;-4.56;76.83;98397.21;215427;1268;140121;-77
2024/01/16 05:41:46;;;;;;;3.80;1.40;;;;;;;-4.56;76.68;98404.60;215488;1267;140448;-72
2024/01/16 05:46:49;;;;;;;3.50;2.10;;;;;;;-4.55;76.94;98406.77;217468;1270;140996;-74
2024/01/16 05:51:52;;;;;;;4.50;2.60;;;;;;;-4.53;77.07;98415.50;215921;1267;140398;-72
2024/01/16 05:56:55;;;;;;;5.50;2.20;;;;;;;-4.54;76.76;98425.32;217485;1268;140693;-73
2024/01/16 06:01:59;;;;;;;3.00;1.90;;;;;;;-4.54;76.89;98428.15;217802;1270;141299;-73
2024/01/16 06:07:05;;;;;;;6.90;3.70;;;;;;;-4.55;76.94;98424.13;217674;1270;139958;-75
2024/01/16 06:12:09;;;;;;;12.70;7.50;;;;;;;-4.59;76.88;98442.55;217075;1267;140664;-73
2024/01/16 06:17:12;;;;;;;5.80;4.10;;;;;;;-4.63;76.64;98460.23;216852;1268;140886;-73
2024/01/16 06:22:16;;;;;;;4.00;3.20;;;;;;;-4.70;76.97;98462.52;217771;1266;140454;-74
2024/01/16 06:27:19;;;;;;;3.50;2.50;;;;;;;-4.73;77.01;98474.11;217223;1270;140320;-73
2024/01/16 06:32:22;;;;;;;8.30;3.70;;;;;;;-4.74;77.03;98483.27;216478;1267;141023;-73
2024/01/16 06:37:25;;;;;;;3.20;2.30;;;;;;;-4.74;77.21;98482.07;216847;1270;140199;-74
2024/01/16 06:42:28;;;;;;;11.30;4.80;;;;;;;-4.73;77.57;98494.06;216545;1267;140458;-73
2024/01/16 06:47:31;;;;;;;8.00;3.50;;;;;;;-4.73;77.32;98506.73;215957;1268;140704;-69
2024/01/16 06:52:34;;;;;;;9.80;3.90;;;;;;;-4.76;77.39;98516.59;216794;1271;141774;-75
2024/01/16 06:57:37;;;;;;;8.50;5.60;;;;;;;-4.76;77.37;98536.73;217456;1268;141544;-74
2024/01/16 07:02:39;;;;;;;9.30;3.30;;;;;;;-4.76;77.57;98547.63;216887;1266;140231;-73
2024/01/16 07:07:45;;;;;;;8.10;3.60;;;;;;;-4.77;77.38;98563.09;217157;1270;140350;-73
2024/01/16 07:12:49;;;;;;;4.30;2.70;;;;;;;-4.79;77.20;98576.55;217033;1267;140052;-73
2024/01/16 07:17:52;;;;;;;5.90;3.80;;;;;;;-4.88;77.15;98578.90;216092;1271;140199;-72
2024/01/16 07:22:54;;;;;;;10.70;6.10;;;;;;;-4.97;77.28;98582.17;216665;1268;139949;-72
2024/01/16 07:27:57;;;;;;;7.50;2.90;;;;;;;-5.09;77.20;98590.87;215819;1268;140809;-69
2024/01/16 07:33:00;;;;;;;13.60;3.70;;;;;;;-5.22;77.04;98600.85;215916;1268;140248;-70
2024/01/16 07:38:03;;;;;;;5.70;3.20;;;;;;;-5.26;77.19;98604.75;215792;1269;140782;-73
2024/01/16 07:43:07;;;;;;;8.60;4.50;;;;;;;-5.22;77.42;98604.41;216518;1268;141880;-74
2024/01/16 07:48:10;;;;;;;8.70;3.80;;;;;;;-5.17;77.60;98606.23;218090;1267;140598;-73
2024/01/16 07:53:13;;;;;;;9.80;6.00;;;;;;;-5.08;77.65;98609.65;216153;1268;142390;-71
2024/01/16 07:58:19;;;;;;;11.60;5.50;;;;;;;-4.98;77.65;98620.34;215952;1266;142213;-70
2024/01/16 08:03:21;;;;;;;8.60;4.20;;;;;;;-4.88;77.75;98630.33;216875;1271;140543;-72
2024/01/16 08:08:24;;;;;;;7.60;3.80;;;;;;;-4.75;77.97;98642.33;215939;1268;141094;-74
2024/01/16 08:13:28;;;;;;;12.40;5.60;;;;;;;-4.65;77.53;98651.13;217708;1270;140382;-75
2024/01/16 08:18:31;;;;;;;10.10;4.60;;;;;;;-4.55;77.34;98662.02;216489;1268;140260;-74
2024/01/16 08:23:35;;;;;;;8.40;4.60;;;;;;;-4.48;77.38;98665.19;217671;1271;140325;-74
2024/01/16 08:28:38;;;;;;;8.10;3.80;;;;;;;-4.37;77.43;98667.00;215491;1269;140703;-72
2024/01/16 08:33:42;;;;;;;6.30;3.60;;;;;;;-4.24;77.37;98678.94;215445;1268;141241;-72
2024/01/16 08:38:49;;;;;;;4.50;2.60;;;;;;;-4.13;77.51;98682.04;215936;1271;140901;-70
2024/01/16 08:43:54;;;;;;;6.50;4.20;;;;;;;-4.00;77.58;98688.93;216778;1267;140909;-72
2024/01/16 08:48:57;;;;;;;7.70;4.30;;;;;;;-3.92;77.36;98698.27;215874;1268;140089;-74
2024/01/16 08:54:00;;;;;;;4.50;2.20;;;;;;;-3.85;77.09;98709.08;216834;1268;142306;-72
2024/01/16 08:59:05;;;;;;;7.70;3.50;;;;;;;-3.73;77.29;98713.02;215412;1268;140984;-71
2024/01/16 09:04:08;;;;;;;6.80;2.80;;;;;;;-3.62;76.78;98716.17;215701;1270;140638;-70
2024/01/16 09:09:12;;;;;;;5.20;2.90;;;;;;;-3.52;76.96;98726.17;215526;1267;140816;-70
2024/01/16 09:14:15;;;;;;;4.10;2.80;;;;;;;-3.39;76.80;98730.42;215743;1268;139641;-69
2024/01/16 09:19:18;;;;;;;3.50;3.10;;;;;;;-3.25;76.45;98736.05;216124;1268;139810;-72
2024/01/16 09:24:20;;;;;;;8.50;7.30;;;;;;;-3.13;76.45;98744.23;217002;1268;140359;-73
2024/01/16 09:29:24;;;;;;;9.00;4.90;;;;;;;-3.03;76.18;98749.98;217073;1271;140727;-69
2024/01/16 09:34:28;;;;;;;8.20;2.90;;;;;;;-2.86;76.31;98753.65;215555;1268;140560;-72
2024/01/16 09:39:32;;;;;;;9.80;4.70;;;;;;;-2.66;75.91;98752.09;215389;1270;141350;-70
2024/01/16 09:44:35;;;;;;;10.40;3.90;;;;;;;-2.42;75.92;98753.16;215981;1267;140639;-72
2024/01/16 09:49:39;;;;;;;10.80;4.90;;;;;;;-2.14;75.86;98752.33;216582;1271;141005;-72
2024/01/16 09:54:42;;;;;;;9.80;5.20;;;;;;;-1.93;75.23;98756.53;216340;1270;140797;-73
2024/01/16 09:59:45;;;;;;;4.80;3.20;;;;;;;-1.91;74.70;98760.86;218377;1268;140065;-72
2024/01/16 10:04:48;;;;;;;8.70;2.60;;;;;;;-2.00;74.36;98761.20;217056;1270;140527;-74
2024/01/16 10:09:51;;;;;;;3.50;2.50;;;;;;;-2.02;74.28;98769.77;217771;1271;140534;-73
2024/01/16 10:14:55;;;;;;;3.70;1.30;;;;;;;-1.91;73.99;98769.67;217892;1267;141259;-71
2024/01/16 10:20:04;;;;;;;6.10;1.80;;;;;;;-1.75;73.77;98770.56;215253;1272;140358;-70
2024/01/16 10:25:09;;;;;;;2.40;2.00;;;;;;;-1.62;73.31;98773.48;215223;1270;140297;-72
2024/01/16 10:30:13;;;;;;;2.60;2.30;;;;;;;-1.52;73.35;98782.21;215452;1271;236188;-73
2024/01/16 10:35:17;;;;;;;4.10;1.60;;;;;;;-1.31;73.14;98791.51;215516;1273;140563;-71
2024/01/16 10:40:25;;;;;;;10.50;7.30;;;;;;;-0.99;72.80;98791.14;215035;1273;140964;-72
2024/01/16 10:45:33;;;;;;;4.00;2.80;;;;;;;-0.78;72.61;98784.29;215336;1270;141017;-72
2024/01/16 10:50:37;;;;;;;5.30;2.80;;;;;;;-0.53;72.75;98789.08;216587;1267;139755;-73
2024/01/16 10:55:53;;;;;;;5.50;2.30;;;;;;;-0.35;71.99;98793.85;215971;1271;139286;-71
2024/01/16 11:00:57;;;;;;;7.20;4.00;;;;;;;-0.22;71.70;98802.66;215010;1272;139712;-71
2024/01/16 11:06:01;;;;;;;2.90;2.00;;;;;;;-0.11;71.03;98806.68;215852;1271;140759;-72
2024/01/16 11:11:05;;;;;;;7.50;2.90;;;;;;;-0.15;70.38;98804.63;215530;1267;140192;-72
2024/01/16 11:16:10;;;;;;;2.60;2.10;;;;;;;-0.26;70.25;98810.04;216275;1270;139926;-73
2024/01/16 11:21:15;;;;;;;5.80;4.90;;;;;;;-0.42;69.74;98806.02;216040;1271;140373;-73
2024/01/16 11:26:36;;;;;;;8.30;4.80;;;;;;;-0.76;69.76;98823.08;216576;1270;141153;-73
2024/01/16 11:31:44;;;;;;;7.20;4.30;;;;;;;-0.82;69.88;98822.63;216573;1267;139932;-74
2024/01/16 11:36:54;;;;;;;10.80;6.70;;;;;;;-0.89;69.70;98818.98;215629;1272;140170;-73
2024/01/16 11:41:59;;;;;;;6.70;4.30;;;;;;;-0.92;69.83;98813.88;215107;1268;139797;-74
2024/01/16 11:47:03;;;;;;;14.60;6.10;;;;;;;-0.77;70.05;98796.16;217005;1270;140092;-72
2024/01/16 11:52:06;;;;;;;9.60;5.20;;;;;;;-0.60;69.53;98792.92;215911;1270;139982;-71
2024/01/16 11:57:30;;;;;;;10.70;4.70;;;;;;;-0.34;69.79;98796.88;218394;1271;141883;-71
2024/01/16 12:02:53;;;;;;;8.70;3.10;;;;;;;-0.34;68.99;98797.89;218169;1272;140411;-77
2024/01/16 12:07:57;;;;;;;6.20;4.30;;;;;;;-0.52;68.90;98807.77;218359;1271;141654;-74
2024/01/16 12:13:00;;;;;;;6.70;4.80;;;;;;;-0.54;69.04;98834.77;218491;1270;139503;-72
2024/01/16 12:18:07;;;;;;;6.60;4.00;;;;;;;-0.55;68.65;98853.10;216012;1271;140517;-73
2024/01/16 12:23:23;;;;;;;4.40;2.90;;;;;;;-0.49;68.69;98853.13;215829;1271;140061;-74
2024/01/16 12:28:25;;;;;;;7.80;4.10;;;;;;;-0.53;68.60;98855.20;215989;1272;140060;-73
2024/01/16 12:33:31;;;;;;;5.70;2.70;;;;;;;-0.66;69.10;98861.00;215731;1271;140043;-72
2024/01/16 12:38:35;;;;;;;6.10;3.30;;;;;;;-0.77;68.72;98864.69;215553;1271;141365;-71
2024/01/16 12:43:38;;;;;;;9.00;4.40;;;;;;;-0.86;68.56;98864.73;215679;1270;140669;-71
2024/01/16 12:48:41;;;;;;;8.40;4.70;;;;;;;-0.91;69.08;98868.89;216418;1271;140716;-71
2024/01/16 12:54:15;;;;;;;9.90;6.10;;;;;;;-0.92;69.19;98878.79;215985;1272;139272;-72
2024/01/16 12:59:19;;;;;;;9.90;4.20;;;;;;;-1.10;69.09;98884.52;215919;1267;140382;-71
2024/01/16 13:04:21;;;;;;;5.00;3.50;;;;;;;-1.22;69.13;98881.86;216785;1267;140229;-72
2024/01/16 13:09:26;;;;;;;7.60;6.10;;;;;;;-1.21;69.70;98883.10;216132;1273;140555;-71
2024/01/16 13:14:30;;;;;;;8.20;3.20;;;;;;;-1.11;69.70;98884.13;215471;1267;140661;-70
2024/01/16 13:19:34;;;;;;;11.70;5.50;;;;;;;-1.10;69.22;98880.01;215695;1267;140371;-72
2024/01/16 13:24:37;;;;;;;5.10;4.60;;;;;;;-1.11;69.56;98880.40;218456;1272;154611;-76
2024/01/16 13:29:40;;;;;;;9.90;4.10;;;;;;;-1.15;69.26;98889.48;216453;1267;140937;-74
2024/01/16 13:34:48;;;;;;;6.40;3.40;;;;;;;-1.16;69.53;98893.48;217643;1271;141682;-74
2024/01/16 13:39:51;;;;;;;5.80;3.20;;;;;;;-1.22;69.07;98894.00;215699;1268;140714;-73
2024/01/16 13:44:54;;;;;;;6.30;3.60;;;;;;;-1.45;68.80;98892.46;215790;1280;140200;-75
2024/01/16 13:49:57;;;;;;;4.50;3.40;;;;;;;-1.56;69.16;98897.10;216007;1267;139842;-73
2024/01/16 13:55:03;;;;;;;5.20;3.50;;;;;;;-1.62;69.30;98912.27;216010;1271;141095;-72
2024/01/16 14:00:12;;;;;;;7.80;3.60;;;;;;;-1.68;69.49;98918.36;216154;1267;140220;-70
2024/01/16 14:05:18;;;;;;;6.70;3.90;;;;;;;-1.72;69.48;98923.91;216319;1271;140437;-69
2024/01/16 14:10:24;;;;;;;9.00;5.30;;;;;;;-1.92;69.16;98934.52;216195;1270;140721;-70
2024/01/16 14:15:27;;;;;;;9.30;5.30;;;;;;;-2.00;69.46;98945.41;218341;1267;141088;-75
2024/01/16 14:20:29;;;;;;;7.80;5.80;;;;;;;-2.03;69.68;98946.77;215832;1273;140153;-75
2024/01/16 14:25:32;;;;;;;16.20;10.60;;;;;;;-2.09;69.67;98949.86;217402;1270;140251;-74
2024/01/16 14:30:35;;;;;;;6.50;4.60;;;;;;;-2.16;69.77;98949.34;216532;1267;145103;-72
2024/01/16 14:35:38;;;;;;;5.70;4.50;;;;;;;-2.20;69.95;98958.44;215826;1267;140067;-74
2024/01/16 14:40:41;;;;;;;6.20;5.10;;;;;;;-2.25;69.99;98954.67;216668;1267;141112;-73
2024/01/16 14:45:44;;;;;;;8.00;5.40;;;;;;;-2.31;70.28;98956.96;216364;1267;138918;-71
2024/01/16 14:50:49;;;;;;;11.90;6.70;;;;;;;-2.39;70.04;98964.27;218751;1267;141290;-75
2024/01/16 14:55:53;;;;;;;10.00;6.60;;;;;;;-2.52;69.82;98974.31;216207;1267;140001;-74
2024/01/16 15:00:56;;;;;;;13.80;6.70;;;;;;;-2.56;70.30;98981.08;215736;1270;141010;-72
2024/01/16 15:05:58;;;;;;;8.90;5.40;;;;;;;-2.60;70.31;98986.61;216252;1272;140998;-75
2024/01/16 15:11:02;;;;;;;8.80;5.60;;;;;;;-2.65;70.81;98991.61;215900;1273;140114;-72
2024/01/16 15:16:05;;;;;;;11.60;9.30;;;;;;;-2.72;70.74;98987.91;216057;1269;140317;-75
2024/01/16 15:21:08;;;;;;;14.20;8.20;;;;;;;-2.78;70.80;98984.01;216596;1267;140554;-75
2024/01/16 15:26:10;;;;;;;10.40;5.90;;;;;;;-2.85;71.00;98994.91;216197;1267;140775;-75
2024/01/16 15:31:14;;;;;;;10.20;5.90;;;;;;;-3.01;71.18;99001.69;215994;1267;140669;-74
2024/01/16 15:36:17;;;;;;;9.70;5.40;;;;;;;-3.20;71.14;99001.33;215879;1270;140970;-71
2024/01/16 15:41:20;;;;;;;7.30;4.50;;;;;;;-3.39;71.18;99007.70;217061;1267;140014;-72
2024/01/16 15:46:26;;;;;;;9.00;5.40;;;;;;;-3.55;71.39;99013.61;216489;1272;140465;-72
2024/01/16 15:51:29;;;;;;;7.10;4.50;;;;;;;-3.78;71.35;99018.65;215565;1270;140123;-75
2024/01/16 15:56:35;;;;;;;7.20;5.10;;;;;;;-4.05;71.10;99022.69;216225;1270;139930;-71
2024/01/16 16:01:44;;;;;;;7.00;4.80;;;;;;;-4.33;71.31;99028.36;216082;1267;140464;-71
2024/01/16 16:06:47;;;;;;;7.10;4.40;;;;;;;-4.58;71.60;99027.94;215998;1270;139877;-71
2024/01/16 16:11:49;;;;;;;15.00;6.50;;;;;;;-4.87;71.45;99030.70;216507;1267;141044;-71
2024/01/16 16:16:52;;;;;;;123.80;32.90;;;;;;;-5.06;72.11;99037.12;216236;1271;141120;-69
2024/01/16 16:21:58;;;;;;;35.80;19.40;;;;;;;-5.12;72.60;99042.95;215630;1267;142684;-72
2024/01/16 16:27:23;;;;;;;36.80;11.50;;;;;;;-5.11;73.12;99051.28;215693;1272;141093;-72
2024/01/16 16:32:25;;;;;;;31.60;17.10;;;;;;;-5.15;73.02;99057.24;216090;1267;142391;-73
2024/01/16 16:37:35;;;;;;;55.10;24.20;;;;;;;-5.16;73.49;99066.01;216550;1267;140262;-69
2024/01/16 16:42:38;;;;;;;42.00;20.90;;;;;;;-5.10;73.84;99065.05;215826;1270;141628;-72
2024/01/16 16:47:42;;;;;;;41.00;19.00;;;;;;;-4.99;74.21;99067.19;215807;1270;140456;-73
2024/01/16 16:52:45;;;;;;;37.60;20.20;;;;;;;-4.96;74.18;99065.09;216315;1267;141101;-70
2024/01/16 16:57:48;;;;;;;29.10;16.00;;;;;;;-4.95;74.62;99067.45;215745;1267;140957;-70
2024/01/16 17:02:51;;;;;;;17.30;9.00;;;;;;;-4.88;75.29;99066.22;215753;1270;140379;-72
2024/01/16 17:07:54;;;;;;;13.20;8.40;;;;;;;-4.77;75.70;99068.49;215786;1270;140351;-70
2024/01/16 17:12:56;;;;;;;15.80;10.50;;;;;;;-4.66;76.12;99067.95;216047;1270;141473;-69
2024/01/16 17:17:59;;;;;;;10.00;7.60;;;;;;;-4.59;76.16;99068.40;216092;1267;142401;-69
2024/01/16 17:23:02;;;;;;;16.80;9.30;;;;;;;-4.55;76.28;99069.75;216156;1267;141552;-70
2024/01/16 17:28:04;;;;;;;18.40;8.60;;;;;;;-4.50;76.56;99069.45;215713;1273;142695;-73
2024/01/16 17:33:08;;;;;;;16.30;9.30;;;;;;;-4.44;76.71;99069.19;216305;1270;140493;-71
2024/01/16 17:38:13;;;;;;;17.30;9.70;;;;;;;-4.46;76.50;99074.55;215843;1268;142247;-73
2024/01/16 17:43:16;;;;;;;22.00;9.10;;;;;;;-4.49;76.67;99068.97;215936;1270;141066;-73
2024/01/16 17:48:18;;;;;;;19.90;10.50;;;;;;;-4.54;76.66;99064.42;217557;1270;141089;-69
2024/01/16 17:53:22;;;;;;;22.50;10.20;;;;;;;-4.58;76.76;99066.98;217042;1270;141725;-70
2024/01/16 17:58:25;;;;;;;22.10;10.90;;;;;;;-4.66;76.65;99073.86;215876;1266;140281;-70
2024/01/16 18:03:28;;;;;;;23.40;12.70;;;;;;;-4.71;76.90;99085.23;216662;1268;141250;-70
2024/01/16 18:08:44;;;;;;;28.50;12.20;;;;;;;-4.69;77.33;99087.20;216707;1270;141236;-70
2024/01/16 18:13:48;;;;;;;24.60;12.70;;;;;;;-4.67;77.57;99097.23;217327;1268;141265;-68
2024/01/16 18:18:51;;;;;;;23.60;11.70;;;;;;;-4.65;77.59;99092.27;216904;1267;140415;-73
2024/01/16 18:23:55;;;;;;;22.70;12.10;;;;;;;-4.61;77.70;99097.80;216646;1270;140250;-71
2024/01/16 18:28:59;;;;;;;16.10;9.00;;;;;;;-4.58;78.11;99096.49;215802;1267;140692;-71
2024/01/16 18:34:02;;;;;;;31.60;13.60;;;;;;;-4.59;77.72;99096.92;215866;1267;140532;-71
2024/01/16 18:39:12;;;;;;;25.00;10.20;;;;;;;-4.58;77.91;99102.63;216272;1267;140653;-67
2024/01/16 18:44:15;;;;;;;25.80;12.00;;;;;;;-4.61;77.95;99101.43;217129;1267;140716;-69
2024/01/16 18:49:18;;;;;;;25.60;12.00;;;;;;;-4.65;78.15;99099.42;216015;1267;140718;-71
2024/01/16 18:54:22;;;;;;;32.70;16.20;;;;;;;-4.76;77.91;99098.10;215626;1267;140355;-71
2024/01/16 18:59:24;;;;;;;26.50;15.30;;;;;;;-4.86;77.86;99105.51;216529;1267;141489;-70
2024/01/16 19:04:29;;;;;;;26.10;16.30;;;;;;;-4.98;77.86;99107.35;215986;1270;141435;-68
2024/01/16 19:09:36;;;;;;;35.00;19.70;;;;;;;-5.06;77.77;99112.54;215964;1270;140604;-67
2024/01/16 19:14:40;;;;;;;70.00;28.60;;;;;;;-5.19;77.79;99105.33;216469;1266;140888;-70
2024/01/16 19:19:51;;;;;;;67.60;29.80;;;;;;;-5.26;78.03;99107.94;216170;1272;141476;-75
2024/01/16 19:24:54;;;;;;;56.20;25.40;;;;;;;-5.30;78.17;99111.77;216103;1267;142239;-73
2024/01/16 19:29:58;;;;;;;62.20;25.70;;;;;;;-5.29;78.38;99115.34;215959;1267;140635;-72
2024/01/16 19:35:02;;;;;;;41.20;19.50;;;;;;;-5.25;78.49;99127.86;216721;1270;141496;-71
2024/01/16 19:40:11;;;;;;;44.60;22.40;;;;;;;-5.25;78.60;99119.38;217131;1267;140664;-71
2024/01/16 19:45:16;;;;;;;64.00;22.30;;;;;;;-5.18;79.16;99120.63;218148;1270;140882;-72
2024/01/16 19:50:19;;;;;;;52.80;21.70;;;;;;;-5.10;79.18;99118.75;215793;1270;142128;-71
2024/01/16 19:55:26;;;;;;;49.10;22.90;;;;;;;-4.99;79.42;99114.27;215979;1267;140797;-71
2024/01/16 20:00:31;;;;;;;53.10;22.40;;;;;;;-4.90;79.64;99114.88;216492;1266;140566;-71
2024/01/16 20:05:41;;;;;;;50.10;21.00;;;;;;;-4.84;79.51;99112.44;216917;1272;140749;-73
2024/01/16 20:10:45;;;;;;;41.00;20.70;;;;;;;-4.79;79.81;99115.37;216183;1271;142657;-72
2024/01/16 20:15:48;;;;;;;54.20;22.40;;;;;;;-4.77;79.56;99109.46;215719;1267;141333;-69
2024/01/16 20:20:52;;;;;;;46.20;21.70;;;;;;;-4.82;79.72;99111.32;216121;1268;140495;-68
2024/01/16 20:25:55;;;;;;;50.40;23.50;;;;;;;-4.79;79.90;99109.59;216434;1270;140608;-70
2024/01/16 20:30:59;;;;;;;62.60;28.30;;;;;;;-4.77;80.08;99105.92;215939;1270;142571;-69
2024/01/16 20:36:02;;;;;;;49.40;23.60;;;;;;;-4.74;80.41;99110.92;215759;1266;140993;-71
2024/01/16 20:41:08;;;;;;;65.10;23.10;;;;;;;-4.73;80.54;99115.98;215689;1268;140577;-73
2024/01/16 20:46:11;;;;;;;59.90;27.40;;;;;;;-4.72;81.06;99116.95;215942;1268;140764;-74
2024/01/16 20:51:17;;;;;;;44.20;21.30;;;;;;;-4.68;81.48;99112.76;216024;1267;140731;-74
2024/01/16 20:56:20;;;;;;;44.40;23.40;;;;;;;-4.64;81.45;99106.22;215727;1267;140845;-72
2024/01/16 21:01:23;;;;;;;50.30;21.30;;;;;;;-4.59;81.66;99103.67;216252;1266;141102;-70
2024/01/16 21:06:25;;;;;;;34.90;16.70;;;;;;;-4.56;82.01;99092.75;216351;1267;141350;-69
2024/01/16 21:11:28;;;;;;;48.00;23.50;;;;;;;-4.54;82.15;99087.48;216225;1266;141012;-73
2024/01/16 21:16:31;;;;;;;46.20;23.50;;;;;;;-4.50;82.32;99086.45;216355;1267;141276;-73
2024/01/16 21:21:34;;;;;;;44.30;21.70;;;;;;;-4.48;82.55;99082.59;216251;1270;140329;-70
2024/01/16 21:26:36;;;;;;;33.90;17.70;;;;;;;-4.47;82.69;99081.95;216982;1270;140766;-68
2024/01/16 21:31:48;;;;;;;38.70;20.00;;;;;;;-4.46;82.70;99083.45;215787;1267;140720;-72
2024/01/16 21:36:52;;;;;;;47.10;23.70;;;;;;;-4.44;82.99;99077.35;215857;1270;141502;-69
2024/01/16 21:41:56;;;;;;;35.50;19.70;;;;;;;-4.42;82.95;99068.42;216819;1267;164509;-72
2024/01/16 21:47:02;;;;;;;38.40;18.60;;;;;;;-4.35;83.40;99065.85;215401;1268;140259;-69
2024/01/16 21:52:05;;;;;;;38.30;20.30;;;;;;;-4.28;83.50;99065.84;215624;1267;141060;-70
2024/01/16 21:57:08;;;;;;;30.50;14.50;;;;;;;-4.22;83.37;99068.95;216282;1267;143479;-69
2024/01/16 22:02:17;;;;;;;36.20;20.70;;;;;;;-4.18;83.62;99066.80;215722;1267;141671;-72
2024/01/16 22:07:19;;;;;;;31.40;13.70;;;;;;;-4.13;83.78;99061.19;216924;1267;140908;-69
2024/01/16 22:12:21;;;;;;;36.10;17.30;;;;;;;-4.11;83.90;99061.70;216053;1267;141682;-73
2024/01/16 22:17:28;;;;;;;26.80;13.40;;;;;;;-4.05;84.09;99064.18;215872;1267;141470;-75
2024/01/16 22:22:32;;;;;;;32.00;16.40;;;;;;;-3.99;84.14;99062.52;215678;1267;141353;-71
2024/01/16 22:27:35;;;;;;;22.70;13.00;;;;;;;-3.93;84.35;99054.92;216771;1270;140902;-72
2024/01/16 22:32:39;;;;;;;26.90;14.70;;;;;;;-3.88;84.42;99056.41;216061;1271;225055;-72
2024/01/16 22:37:44;;;;;;;26.90;13.70;;;;;;;-3.80;84.43;99056.86;216344;1267;140700;-69
2024/01/16 22:42:50;;;;;;;28.30;12.90;;;;;;;-3.73;84.81;99047.92;215784;1267;141056;-71
2024/01/16 22:47:53;;;;;;;19.90;9.60;;;;;;;-3.63;84.90;99048.84;216041;1267;140425;-70
2024/01/16 22:52:57;;;;;;;27.80;12.10;;;;;;;-3.53;85.00;99043.19;215942;1267;140736;-70
2024/01/16 22:58:02;;;;;;;21.70;8.10;;;;;;;-3.44;85.06;99034.60;216552;1267;140922;-73
2024/01/16 23:03:09;;;;;;;20.00;10.00;;;;;;;-3.37;84.94;99018.33;215932;1267;142413;-70
2024/01/16 23:08:13;;;;;;;18.40;9.70;;;;;;;-3.32;85.10;99015.63;215833;1271;140632;-73